Time;durP1;ratioP1;P1;durP2;ratioP2;P2;SDS_P1;SDS_P2;PMS_P1;PMS_P2;Temp;Humidity;BMP_temperature;BMP_pressure;BME280_temperature;BME280_humidity;BME280_pressure;Samples;Min_cycle;Max_cycle;Signal;HPM_P1;HPM_P2
2021/10/31 00:00:44;;;;;;;35.33;15.00;;;12.70;88.40;;;;;;5095074;28;20592;-83
2021/10/31 00:03:10;;;;;;;33.20;15.73;;;12.70;88.40;;;;;;5097481;28;20201;-83
2021/10/31 00:05:36;;;;;;;22.80;13.30;;;12.80;87.90;;;;;;5101016;28;20410;-81
2021/10/31 00:08:02;;;;;;;30.23;16.07;;;12.80;87.60;;;;;;5101448;28;20402;-82
2021/10/31 00:10:28;;;;;;;29.13;14.90;;;12.80;87.40;;;;;;5102775;28;20501;-82
2021/10/31 00:12:54;;;;;;;20.07;13.20;;;12.90;87.20;;;;;;5110567;28;20588;-83
2021/10/31 00:15:19;;;;;;;26.92;13.93;;;12.80;87.00;;;;;;5120332;28;20464;-83
2021/10/31 00:17:45;;;;;;;27.17;15.47;;;12.70;87.20;;;;;;5120172;28;20183;-83
2021/10/31 00:20:11;;;;;;;25.27;13.80;;;12.70;87.40;;;;;;5117206;28;20175;-83
2021/10/31 00:22:37;;;;;;;27.80;15.07;;;12.50;87.70;;;;;;5113242;28;20207;-83
2021/10/31 00:25:04;;;;;;;33.30;15.40;;;12.50;88.00;;;;;;5115880;28;20199;-83
2021/10/31 00:27:29;;;;;;;21.45;12.15;;;12.60;88.20;;;;;;5117546;28;20437;-83
2021/10/31 00:29:55;;;;;;;24.87;12.87;;;12.60;88.10;;;;;;5117019;28;20715;-83
2021/10/31 00:32:21;;;;;;;30.47;14.90;;;12.50;88.20;;;;;;5117411;28;20175;-82
2021/10/31 00:34:46;;;;;;;26.67;13.60;;;12.50;88.30;;;;;;5117385;28;20206;-83
2021/10/31 00:37:13;;;;;;;22.30;13.43;;;12.70;88.20;;;;;;5116762;28;20182;-83
2021/10/31 00:39:38;;;;;;;29.40;15.60;;;12.60;87.90;;;;;;5118186;28;20178;-83
2021/10/31 00:42:04;;;;;;;25.60;14.77;;;12.60;87.90;;;;;;5121527;28;20183;-83
2021/10/31 00:44:30;;;;;;;37.70;14.77;;;12.40;87.80;;;;;;5124042;28;20252;-83
2021/10/31 00:46:55;;;;;;;25.27;14.87;;;12.50;88.00;;;;;;5119780;28;20456;-82
2021/10/31 00:49:21;;;;;;;22.83;13.30;;;12.50;87.90;;;;;;5116038;28;20186;-82
2021/10/31 00:51:48;;;;;;;24.87;15.87;;;12.50;88.00;;;;;;5116822;28;20175;-83
2021/10/31 00:54:14;;;;;;;22.55;13.88;;;12.50;88.00;;;;;;5117314;28;20207;-83
2021/10/31 00:56:40;;;;;;;28.25;14.63;;;12.50;88.00;;;;;;5117078;28;20179;-82
2021/10/31 00:59:05;;;;;;;24.90;14.83;;;12.40;87.80;;;;;;5117243;28;20214;-83
2021/10/31 01:01:32;;;;;;;31.00;15.13;;;12.30;87.90;;;;;;5117723;28;20171;-83
2021/10/31 01:03:58;;;;;;;24.15;14.05;;;12.20;88.10;;;;;;5118126;28;20661;-83
2021/10/31 01:06:30;;;;;;;32.05;16.08;;;12.20;88.30;;;;;;5118644;28;20182;-83
2021/10/31 01:09:04;;;;;;;25.33;14.20;;;12.20;88.50;;;;;;5116599;28;20175;-83
2021/10/31 01:11:51;;;;;;;25.08;14.07;;;12.30;88.40;;;;;;5120804;28;20198;-83
2021/10/31 01:14:49;;;;;;;25.20;13.35;;;12.40;87.80;;;;;;5122992;28;20624;-83
2021/10/31 01:17:15;;;;;;;25.25;15.88;;;12.30;86.80;;;;;;5089293;28;20190;-83
2021/10/31 01:20:09;;;;;;;25.00;15.30;;;12.20;86.60;;;;;;5122994;28;20175;-84
2021/10/31 01:23:09;;;;;;;24.05;14.25;;;12.20;86.80;;;;;;5121298;28;20198;-83
2021/10/31 01:25:59;;;;;;;36.22;14.57;;;12.20;86.90;;;;;;5122997;28;20205;-83
2021/10/31 01:28:50;;;;;;;28.67;15.35;;;12.20;86.80;;;;;;5123101;28;20171;-83
2021/10/31 01:31:27;;;;;;;25.67;14.52;;;12.20;86.80;;;;;;5121911;28;20175;-83
2021/10/31 01:34:04;;;;;;;34.53;16.60;;;12.00;87.00;;;;;;5121848;28;20668;-83
2021/10/31 01:36:52;;;;;;;28.85;15.52;;;11.90;87.50;;;;;;5121699;28;20276;-83
2021/10/31 01:39:36;;;;;;;26.55;14.70;;;12.00;87.90;;;;;;5122345;28;20191;-83
2021/10/31 01:42:25;;;;;;;37.33;15.73;;;12.10;88.00;;;;;;5122200;28;20178;-83
2021/10/31 01:45:22;;;;;;;23.90;14.02;;;11.90;88.10;;;;;;5131857;28;20658;-82
2021/10/31 01:48:11;;;;;;;31.65;15.50;;;11.80;88.20;;;;;;5124344;28;20282;-83
2021/10/31 01:50:45;;;;;;;27.77;14.43;;;11.90;88.60;;;;;;5125428;28;20270;-83
2021/10/31 01:53:36;;;;;;;31.08;15.40;;;11.80;88.50;;;;;;5108545;28;20546;-83
2021/10/31 01:56:02;;;;;;;29.75;15.27;;;12.00;88.70;;;;;;5124159;28;20262;-83
2021/10/31 01:58:33;;;;;;;25.73;15.43;;;12.20;88.20;;;;;;5125721;28;20199;-83
2021/10/31 02:01:01;;;;;;;33.58;16.88;;;12.10;87.90;;;;;;5124527;28;20450;-83
2021/10/31 02:03:29;;;;;;;30.45;17.80;;;12.00;87.90;;;;;;5123274;28;20207;-83
2021/10/31 02:05:57;;;;;;;30.05;15.93;;;12.10;88.20;;;;;;5125981;28;20171;-83
2021/10/31 02:08:24;;;;;;;30.23;15.73;;;12.10;88.00;;;;;;5125238;28;20190;-83
2021/10/31 02:10:51;;;;;;;26.15;15.50;;;12.20;87.40;;;;;;5125834;27;20195;-83
2021/10/31 02:13:18;;;;;;;30.13;15.77;;;12.20;86.90;;;;;;5137541;28;20188;-83
2021/10/31 02:15:47;;;;;;;26.67;15.75;;;12.20;86.60;;;;;;5141009;28;20195;-82
2021/10/31 02:18:14;;;;;;;28.63;15.07;;;12.20;86.50;;;;;;5141365;28;20184;-82
2021/10/31 02:20:42;;;;;;;25.80;15.27;;;12.20;86.40;;;;;;5141089;28;20218;-82
2021/10/31 02:23:09;;;;;;;27.75;15.77;;;12.20;86.30;;;;;;5141412;28;20200;-83
2021/10/31 02:25:35;;;;;;;31.17;15.57;;;12.10;86.40;;;;;;5141382;28;20167;-83
2021/10/31 02:28:01;;;;;;;44.93;16.63;;;11.90;86.50;;;;;;5133159;28;20239;-83
2021/10/31 02:30:27;;;;;;;25.13;14.70;;;11.90;87.00;;;;;;5135444;28;20405;-84
2021/10/31 02:32:53;;;;;;;27.27;16.00;;;11.90;87.70;;;;;;5128093;28;20180;-82
2021/10/31 02:35:21;;;;;;;30.83;15.97;;;11.70;87.10;;;;;;5122336;28;20573;-83
2021/10/31 02:37:47;;;;;;;28.85;15.90;;;11.70;87.40;;;;;;5123007;28;20440;-82
2021/10/31 02:40:16;;;;;;;32.08;17.17;;;11.70;87.60;;;;;;5105511;28;20187;-83
2021/10/31 02:42:42;;;;;;;42.08;17.35;;;11.60;87.70;;;;;;5122591;28;20177;-82
2021/10/31 02:45:09;;;;;;;32.33;15.87;;;11.70;87.90;;;;;;5123038;28;20266;-83
2021/10/31 02:47:38;;;;;;;26.95;15.10;;;11.60;87.90;;;;;;5104110;28;20485;-83
2021/10/31 02:50:04;;;;;;;26.67;14.35;;;11.60;88.00;;;;;;5123320;28;20178;-83
2021/10/31 02:52:39;;;;;;;30.35;15.05;;;11.50;88.20;;;;;;5121675;28;20240;-83
2021/10/31 02:55:20;;;;;;;33.42;14.88;;;11.70;88.50;;;;;;5122085;28;20215;-82
2021/10/31 02:57:53;;;;;;;28.77;16.27;;;11.70;88.20;;;;;;5122188;27;20201;-83
2021/10/31 03:00:19;;;;;;;24.80;15.15;;;11.70;88.10;;;;;;5119411;28;20213;-83
2021/10/31 03:02:47;;;;;;;28.00;15.52;;;11.70;88.10;;;;;;5120850;28;20182;-83
2021/10/31 03:05:13;;;;;;;27.90;16.45;;;11.70;88.10;;;;;;5120773;28;20725;-83
2021/10/31 03:07:39;;;;;;;36.67;15.65;;;11.70;88.00;;;;;;5117941;28;20206;-83
2021/10/31 03:10:05;;;;;;;39.50;18.50;;;11.90;88.00;;;;;;5118213;28;20163;-83
2021/10/31 03:12:31;;;;;;;39.63;21.98;;;11.80;87.60;;;;;;5115592;28;20219;-83
2021/10/31 03:14:58;;;;;;;34.17;17.00;;;11.70;87.60;;;;;;5103302;28;20586;-83
2021/10/31 03:17:24;;;;;;;37.92;18.98;;;11.70;87.70;;;;;;5102230;28;20406;-82
2021/10/31 03:19:49;;;;;;;35.15;17.83;;;11.70;87.90;;;;;;5101835;28;20211;-83
2021/10/31 03:22:15;;;;;;;44.37;17.83;;;11.70;87.90;;;;;;5102753;28;20626;-83
2021/10/31 03:24:41;;;;;;;31.93;18.47;;;11.70;88.00;;;;;;5098124;28;20575;-83
2021/10/31 03:27:07;;;;;;;37.97;22.57;;;11.70;88.00;;;;;;5098319;28;20556;-83
2021/10/31 03:29:33;;;;;;;43.72;24.30;;;11.80;87.90;;;;;;5101846;28;20598;-83
2021/10/31 03:31:59;;;;;;;44.83;23.50;;;11.70;87.70;;;;;;5101511;28;20198;-83
2021/10/31 03:34:24;;;;;;;49.50;27.93;;;11.60;87.80;;;;;;5097122;28;20200;-83
2021/10/31 03:36:50;;;;;;;53.23;29.30;;;11.60;88.00;;;;;;5098883;28;20180;-83
2021/10/31 03:39:17;;;;;;;50.27;27.27;;;11.50;88.30;;;;;;5099870;28;20220;-82
2021/10/31 03:41:45;;;;;;;57.58;28.30;;;11.30;88.60;;;;;;5098488;28;20433;-82
2021/10/31 03:44:14;;;;;;;54.00;26.98;;;11.20;89.00;;;;;;5098218;28;20236;-82
2021/10/31 03:46:40;;;;;;;50.65;24.48;;;11.30;89.40;;;;;;5098037;28;20187;-83
2021/10/31 03:49:06;;;;;;;43.85;24.13;;;11.40;89.40;;;;;;5097864;28;20183;-83
2021/10/31 03:51:32;;;;;;;42.63;23.13;;;11.50;89.50;;;;;;5097562;28;20263;-83
2021/10/31 03:53:57;;;;;;;48.03;24.30;;;11.50;90.00;;;;;;5097377;28;20543;-83
2021/10/31 03:56:23;;;;;;;36.43;21.50;;;11.60;89.20;;;;;;5100028;28;20168;-83
2021/10/31 03:58:49;;;;;;;43.20;21.37;;;11.60;89.00;;;;;;5101213;28;20228;-83
2021/10/31 04:01:15;;;;;;;40.83;21.63;;;11.40;89.70;;;;;;5099429;28;20229;-83
2021/10/31 04:03:42;;;;;;;43.65;20.45;;;11.50;89.20;;;;;;5100480;28;20188;-82
2021/10/31 04:06:08;;;;;;;45.03;19.67;;;11.50;89.10;;;;;;5099686;28;20494;-82
2021/10/31 04:08:34;;;;;;;39.77;18.93;;;11.50;89.10;;;;;;5101901;28;20183;-82
2021/10/31 04:10:59;;;;;;;47.27;20.40;;;11.50;89.10;;;;;;5100046;28;20195;-82
2021/10/31 04:13:25;;;;;;;34.80;17.57;;;11.30;89.10;;;;;;5114515;28;20230;-82
2021/10/31 04:15:51;;;;;;;35.90;19.93;;;11.40;89.40;;;;;;5119374;28;20175;-83
2021/10/31 04:18:16;;;;;;;48.30;22.07;;;11.40;89.40;;;;;;5121302;28;20167;-83
2021/10/31 04:20:42;;;;;;;38.63;19.23;;;11.30;89.50;;;;;;5121757;28;20179;-83
2021/10/31 04:23:08;;;;;;;37.87;19.20;;;11.40;89.60;;;;;;5118816;28;20171;-82
2021/10/31 04:25:34;;;;;;;36.90;19.40;;;11.40;89.70;;;;;;5102778;28;20191;-83
2021/10/31 04:27:59;;;;;;;39.70;17.30;;;11.40;89.60;;;;;;5099074;28;20610;-82
2021/10/31 04:30:25;;;;;;;41.53;18.70;;;11.40;89.60;;;;;;5100358;28;20176;-82
2021/10/31 04:32:51;;;;;;;39.63;19.40;;;11.40;89.60;;;;;;5101459;28;20176;-82
2021/10/31 04:35:16;;;;;;;41.03;18.83;;;11.40;89.50;;;;;;5098156;28;20203;-83
2021/10/31 04:37:45;;;;;;;38.20;17.47;;;11.40;89.20;;;;;;5098727;28;20631;-82
2021/10/31 04:40:14;;;;;;;33.08;16.88;;;11.50;89.20;;;;;;5097888;28;20179;-82
2021/10/31 04:42:40;;;;;;;31.02;16.02;;;11.50;89.00;;;;;;5097903;28;20180;-82
2021/10/31 04:45:07;;;;;;;33.70;17.33;;;11.40;88.80;;;;;;5097547;28;20192;-82
2021/10/31 04:47:32;;;;;;;34.10;16.90;;;11.50;89.00;;;;;;5102594;28;20194;-83
2021/10/31 04:49:58;;;;;;;32.27;15.27;;;11.40;89.00;;;;;;5101438;28;20179;-82
2021/10/31 04:52:24;;;;;;;32.00;15.50;;;11.50;89.00;;;;;;5099915;28;20418;-83
2021/10/31 04:54:50;;;;;;;32.47;16.43;;;11.50;89.00;;;;;;5081023;28;20466;-83
2021/10/31 04:57:16;;;;;;;36.83;16.10;;;11.40;88.90;;;;;;5097479;28;20572;-82
2021/10/31 04:59:42;;;;;;;34.53;16.15;;;11.50;89.20;;;;;;5099393;28;20414;-83
2021/10/31 05:02:08;;;;;;;34.53;17.40;;;11.50;89.20;;;;;;5097709;28;20179;-83
2021/10/31 05:04:34;;;;;;;29.00;16.85;;;11.40;89.20;;;;;;5096850;28;20434;-82
2021/10/31 05:06:59;;;;;;;29.43;15.63;;;11.50;89.40;;;;;;5097195;28;20180;-82
2021/10/31 05:09:25;;;;;;;29.53;15.23;;;11.50;89.20;;;;;;5099444;28;20542;-82
2021/10/31 05:11:51;;;;;;;26.63;15.43;;;11.50;89.20;;;;;;5098927;28;20193;-82
2021/10/31 05:14:17;;;;;;;30.03;14.47;;;11.40;89.20;;;;;;5100325;28;20919;-82
2021/10/31 05:16:42;;;;;;;33.97;15.70;;;11.40;89.60;;;;;;5119181;28;20316;-83
2021/10/31 05:19:09;;;;;;;33.30;17.13;;;11.30;89.80;;;;;;5100495;28;20175;-82
2021/10/31 05:21:34;;;;;;;29.98;16.00;;;11.20;90.10;;;;;;5118677;28;20222;-82
2021/10/31 05:24:01;;;;;;;37.97;16.50;;;11.20;90.60;;;;;;5117415;28;20226;-82
2021/10/31 05:26:27;;;;;;;30.45;14.68;;;11.20;90.90;;;;;;5118684;28;20201;-83
2021/10/31 05:28:53;;;;;;;32.58;15.95;;;11.20;91.00;;;;;;5117436;28;20258;-82
2021/10/31 05:31:20;;;;;;;34.42;15.75;;;11.30;91.20;;;;;;5116887;28;20202;-82
2021/10/31 05:33:47;;;;;;;32.60;14.98;;;11.20;91.20;;;;;;5116685;28;20690;-82
2021/10/31 05:36:12;;;;;;;31.85;16.13;;;11.20;91.20;;;;;;5116974;28;20175;-82
2021/10/31 05:38:38;;;;;;;33.70;17.87;;;11.30;91.20;;;;;;5118180;28;20172;-82
2021/10/31 05:41:04;;;;;;;30.90;14.87;;;11.30;91.10;;;;;;5117023;28;20171;-83
2021/10/31 05:43:30;;;;;;;28.47;16.20;;;11.50;91.10;;;;;;5116194;28;20195;-83
2021/10/31 05:45:57;;;;;;;35.03;15.95;;;11.40;90.70;;;;;;5116696;28;20793;-83
2021/10/31 05:48:24;;;;;;;35.13;15.82;;;11.30;90.60;;;;;;5117375;28;20180;-82
2021/10/31 05:50:52;;;;;;;30.10;16.17;;;11.30;90.70;;;;;;5116902;28;20171;-82
2021/10/31 05:53:18;;;;;;;31.85;17.35;;;11.30;90.80;;;;;;5118323;28;20704;-83
2021/10/31 05:55:43;;;;;;;32.50;16.30;;;11.30;91.00;;;;;;5117727;28;20195;-82
2021/10/31 05:58:09;;;;;;;25.13;14.90;;;11.30;91.80;;;;;;5120402;28;20432;-83
2021/10/31 06:00:35;;;;;;;28.07;16.30;;;11.30;91.10;;;;;;5121059;28;20171;-82
2021/10/31 06:03:00;;;;;;;36.57;16.37;;;11.40;91.00;;;;;;5120283;28;20537;-83
2021/10/31 06:05:27;;;;;;;37.00;18.70;;;11.40;91.00;;;;;;5119304;28;20179;-83
2021/10/31 06:07:53;;;;;;;31.88;16.85;;;11.30;90.90;;;;;;5120860;28;20214;-83
2021/10/31 06:10:18;;;;;;;35.20;16.97;;;11.40;90.90;;;;;;5118307;28;20274;-82
2021/10/31 06:12:46;;;;;;;29.50;16.17;;;11.40;90.70;;;;;;5109642;28;20198;-82
2021/10/31 06:15:14;;;;;;;37.83;17.05;;;11.40;90.60;;;;;;5097580;28;20195;-83
2021/10/31 06:17:40;;;;;;;29.00;16.95;;;11.40;90.60;;;;;;5098984;28;20178;-83
2021/10/31 06:20:11;;;;;;;35.53;17.35;;;11.40;90.60;;;;;;5101444;28;20164;-83
2021/10/31 06:22:38;;;;;;;34.00;15.90;;;11.40;90.70;;;;;;5104403;28;20236;-83
2021/10/31 06:25:05;;;;;;;39.30;17.65;;;11.40;90.70;;;;;;5108897;28;20198;-83
2021/10/31 06:27:31;;;;;;;36.17;16.52;;;11.30;90.70;;;;;;5112455;28;20179;-82
2021/10/31 06:29:57;;;;;;;29.17;15.57;;;11.40;90.80;;;;;;5114990;28;20186;-82
2021/10/31 06:32:23;;;;;;;32.50;16.70;;;11.50;90.80;;;;;;5116969;28;20410;-82
2021/10/31 06:34:48;;;;;;;31.67;16.07;;;11.50;90.60;;;;;;5111527;28;20204;-82
2021/10/31 06:37:14;;;;;;;33.53;16.53;;;11.40;90.50;;;;;;5115449;28;20200;-82
2021/10/31 06:39:40;;;;;;;28.93;16.03;;;11.40;90.50;;;;;;5118432;28;20192;-82
2021/10/31 06:42:06;;;;;;;25.70;15.03;;;11.40;90.40;;;;;;5090271;28;20202;-83
2021/10/31 06:44:31;;;;;;;26.17;14.03;;;11.50;90.50;;;;;;5107795;28;20426;-84
2021/10/31 06:46:57;;;;;;;26.23;14.90;;;11.50;90.20;;;;;;5107901;28;20176;-83
2021/10/31 06:49:23;;;;;;;26.03;13.77;;;11.50;90.20;;;;;;5111571;28;20237;-83
2021/10/31 06:51:48;;;;;;;28.87;16.17;;;11.60;90.20;;;;;;5109494;28;20180;-83
2021/10/31 06:54:15;;;;;;;27.63;14.30;;;11.50;90.20;;;;;;5110955;28;20195;-83
2021/10/31 06:56:41;;;;;;;27.15;15.57;;;11.40;90.20;;;;;;5111232;28;20253;-83
2021/10/31 06:59:07;;;;;;;30.08;16.15;;;11.30;90.40;;;;;;5115031;28;20172;-82
2021/10/31 07:01:33;;;;;;;22.65;14.13;;;11.30;90.60;;;;;;5111972;28;20192;-82
2021/10/31 07:03:59;;;;;;;20.52;13.05;;;11.40;90.60;;;;;;5095651;28;20202;-83
2021/10/31 07:06:24;;;;;;;25.83;14.23;;;11.40;90.40;;;;;;5114152;28;20194;-81
2021/10/31 07:08:50;;;;;;;20.93;13.30;;;11.50;90.50;;;;;;5111579;28;20168;-81
2021/10/31 07:11:16;;;;;;;27.33;12.60;;;11.40;90.50;;;;;;5115730;28;20218;-81
2021/10/31 07:13:42;;;;;;;27.70;13.13;;;11.50;90.70;;;;;;5128058;28;20188;-81
2021/10/31 07:16:08;;;;;;;28.13;13.50;;;11.50;90.40;;;;;;5132559;28;20198;-81
2021/10/31 07:18:34;;;;;;;22.50;13.93;;;11.50;90.20;;;;;;5135233;28;20400;-81
2021/10/31 07:21:00;;;;;;;21.08;11.45;;;11.60;90.20;;;;;;5134245;28;20455;-81
2021/10/31 07:23:26;;;;;;;30.27;13.80;;;11.60;90.00;;;;;;5134749;28;20294;-82
2021/10/31 07:25:52;;;;;;;18.50;12.75;;;11.60;89.90;;;;;;5133041;28;20194;-82
2021/10/31 07:28:18;;;;;;;21.70;11.83;;;11.60;90.00;;;;;;5130829;28;20175;-81
2021/10/31 07:30:44;;;;;;;18.80;11.00;;;11.40;90.00;;;;;;5136350;28;20409;-81
2021/10/31 07:33:09;;;;;;;19.30;11.53;;;11.50;90.20;;;;;;5136105;28;20199;-82
2021/10/31 07:35:35;;;;;;;18.90;11.17;;;11.50;90.40;;;;;;5137734;28;20214;-81
2021/10/31 07:38:02;;;;;;;21.53;11.23;;;11.60;90.30;;;;;;5136200;27;20421;-81
2021/10/31 07:40:28;;;;;;;21.60;12.48;;;11.50;90.20;;;;;;5137993;28;20177;-82
2021/10/31 07:42:54;;;;;;;19.13;10.80;;;11.60;90.20;;;;;;5133843;28;20175;-81
2021/10/31 07:45:20;;;;;;;15.40;9.90;;;11.60;90.10;;;;;;5136725;28;20194;-82
2021/10/31 07:47:45;;;;;;;15.80;11.03;;;11.60;89.90;;;;;;5134135;28;20441;-81
2021/10/31 07:50:11;;;;;;;16.13;9.43;;;11.70;90.70;;;;;;5135427;28;20186;-81
2021/10/31 07:52:45;;;;;;;16.80;10.93;;;11.70;89.70;;;;;;5130256;28;20232;-82
2021/10/31 07:55:15;;;;;;;14.20;9.38;;;11.80;89.50;;;;;;5127610;28;20449;-81
2021/10/31 07:57:43;;;;;;;10.90;6.97;;;11.80;89.60;;;;;;5128351;28;20175;-82
2021/10/31 08:00:09;;;;;;;15.05;8.57;;;11.80;89.30;;;;;;5126449;28;20250;-81
2021/10/31 08:02:35;;;;;;;12.07;8.25;;;11.90;89.30;;;;;;5129179;28;20508;-81
2021/10/31 08:05:00;;;;;;;12.43;9.00;;;12.00;89.10;;;;;;5127915;28;20277;-81
2021/10/31 08:07:30;;;;;;;12.00;7.50;;;11.90;89.00;;;;;;5126732;28;20278;-81
2021/10/31 08:09:58;;;;;;;10.68;8.55;;;11.90;88.80;;;;;;5121671;28;20202;-81
2021/10/31 08:12:26;;;;;;;10.38;7.47;;;12.00;88.80;;;;;;5120795;28;20190;-81
2021/10/31 08:14:57;;;;;;;10.63;6.88;;;12.10;88.70;;;;;;5116325;28;20260;-82
2021/10/31 08:17:22;;;;;;;9.35;7.35;;;12.00;88.40;;;;;;5102028;28;20184;-81
2021/10/31 08:19:48;;;;;;;9.07;7.17;;;12.00;88.50;;;;;;5101082;28;20548;-82
2021/10/31 08:22:14;;;;;;;9.43;7.50;;;12.00;88.50;;;;;;5103213;28;20529;-81
2021/10/31 08:24:40;;;;;;;8.82;5.75;;;12.10;88.50;;;;;;5102268;28;20207;-81
2021/10/31 08:27:06;;;;;;;6.83;5.80;;;12.10;88.50;;;;;;5103450;28;20183;-81
2021/10/31 08:29:33;;;;;;;9.73;7.85;;;12.10;88.50;;;;;;5101297;28;20183;-81
2021/10/31 08:31:58;;;;;;;7.57;5.65;;;12.30;88.70;;;;;;5101272;28;20179;-82
2021/10/31 08:34:25;;;;;;;10.60;6.70;;;12.40;88.20;;;;;;5100258;28;20195;-81
2021/10/31 08:36:52;;;;;;;9.60;7.53;;;12.50;88.10;;;;;;5084159;28;20184;-82
2021/10/31 08:39:17;;;;;;;8.32;6.15;;;12.60;87.80;;;;;;5099824;28;20195;-82
2021/10/31 08:41:43;;;;;;;11.47;6.97;;;12.60;87.60;;;;;;5099603;28;20552;-82
2021/10/31 08:44:09;;;;;;;7.77;5.40;;;12.70;87.40;;;;;;5101180;28;20256;-82
2021/10/31 08:46:35;;;;;;;5.88;5.07;;;12.80;87.00;;;;;;5102888;28;20182;-81
2021/10/31 08:49:02;;;;;;;5.97;4.85;;;12.80;86.60;;;;;;5102451;28;20184;-82
2021/10/31 08:51:28;;;;;;;7.13;5.50;;;12.90;86.50;;;;;;5100642;28;20668;-81
2021/10/31 08:53:55;;;;;;;7.03;5.05;;;13.00;86.30;;;;;;5099792;28;20204;-82
2021/10/31 08:56:25;;;;;;;5.95;5.10;;;12.90;86.20;;;;;;5101253;28;20171;-81
2021/10/31 08:58:51;;;;;;;7.45;4.97;;;13.00;86.10;;;;;;5101067;28;20207;-81
2021/10/31 09:01:17;;;;;;;5.63;4.87;;;13.10;85.90;;;;;;5101405;28;20658;-81
2021/10/31 09:03:44;;;;;;;4.40;4.00;;;13.00;85.60;;;;;;5100647;28;20472;-81
2021/10/31 09:06:11;;;;;;;6.55;4.55;;;13.20;85.60;;;;;;5107169;28;20504;-81
2021/10/31 09:08:40;;;;;;;6.28;4.57;;;13.20;85.20;;;;;;5113896;28;20195;-81
2021/10/31 09:11:06;;;;;;;5.05;4.50;;;13.20;85.20;;;;;;5114873;28;20171;-81
2021/10/31 09:13:32;;;;;;;6.60;3.80;;;13.20;85.00;;;;;;5127680;28;20195;-82
2021/10/31 09:15:57;;;;;;;5.50;4.67;;;13.30;85.10;;;;;;5132091;28;20460;-82
2021/10/31 09:18:24;;;;;;;3.83;3.53;;;13.30;84.80;;;;;;5132349;28;20179;-82
2021/10/31 09:20:51;;;;;;;7.28;4.40;;;13.40;84.50;;;;;;5128198;28;20262;-82
2021/10/31 09:23:17;;;;;;;3.90;3.50;;;13.50;84.20;;;;;;5119838;28;20282;-82
2021/10/31 09:25:43;;;;;;;4.57;3.78;;;13.60;84.00;;;;;;5118112;28;20236;-82
2021/10/31 09:28:09;;;;;;;11.77;5.18;;;13.60;83.90;;;;;;5115086;28;20179;-82
2021/10/31 09:30:38;;;;;;;5.33;3.87;;;13.60;83.70;;;;;;5098616;28;20645;-81
2021/10/31 09:33:05;;;;;;;3.83;3.40;;;13.70;83.50;;;;;;5122788;28;20175;-82
2021/10/31 09:35:33;;;;;;;6.35;3.40;;;13.60;83.30;;;;;;5123676;28;20202;-82
2021/10/31 09:38:08;;;;;;;3.83;2.95;;;13.60;83.50;;;;;;5123970;28;20182;-82
2021/10/31 09:40:36;;;;;;;3.60;3.33;;;13.70;83.60;;;;;;5104975;28;20175;-81
2021/10/31 09:43:03;;;;;;;2.95;2.70;;;13.80;83.50;;;;;;5104673;28;20175;-82
2021/10/31 09:45:30;;;;;;;7.82;3.20;;;13.70;83.30;;;;;;5106007;28;20175;-82
2021/10/31 09:48:06;;;;;;;4.80;2.42;;;13.80;83.40;;;;;;5102903;28;20175;-81
2021/10/31 09:50:34;;;;;;;4.10;2.88;;;13.90;83.00;;;;;;5099501;28;20176;-82
2021/10/31 09:53:00;;;;;;;3.00;2.75;;;14.00;83.00;;;;;;5097381;28;20172;-82
2021/10/31 09:55:27;;;;;;;3.25;2.90;;;14.00;82.40;;;;;;5099993;28;20203;-82
2021/10/31 09:57:53;;;;;;;5.40;2.72;;;13.90;82.90;;;;;;5101376;28;20172;-81
2021/10/31 10:00:20;;;;;;;4.50;2.40;;;14.00;82.70;;;;;;5102429;28;20179;-82
2021/10/31 10:05:18;;;;;;;3.90;3.05;;;14.10;82.30;;;;;;5103325;28;20195;-82
2021/10/31 10:07:45;;;;;;;8.55;3.25;;;14.20;82.40;;;;;;5103078;28;20171;-81
2021/10/31 10:10:14;;;;;;;2.88;2.58;;;14.20;82.00;;;;;;5102163;28;20183;-82
2021/10/31 10:12:41;;;;;;;2.60;2.40;;;14.10;82.10;;;;;;5110785;28;20179;-82
2021/10/31 10:15:12;;;;;;;2.95;2.13;;;14.20;82.00;;;;;;5121642;28;20565;-82
2021/10/31 10:17:51;;;;;;;2.38;2.17;;;14.40;82.00;;;;;;5105090;28;20176;-82
2021/10/31 10:20:18;;;;;;;3.50;2.25;;;14.60;81.20;;;;;;5101691;28;20548;-82
2021/10/31 10:22:45;;;;;;;4.15;2.50;;;14.50;81.10;;;;;;5101416;28;20172;-82
2021/10/31 10:25:11;;;;;;;9.32;4.35;;;14.60;81.20;;;;;;5100484;28;20207;-82
2021/10/31 10:27:55;;;;;;;9.63;2.58;;;14.50;80.80;;;;;;5101907;28;20253;-82
2021/10/31 10:30:23;;;;;;;10.30;2.50;;;14.60;80.80;;;;;;5100942;28;20605;-81
2021/10/31 10:32:56;;;;;;;3.28;2.97;;;14.60;80.90;;;;;;5102312;28;20171;-82
2021/10/31 10:35:25;;;;;;;4.13;2.60;;;14.80;80.80;;;;;;5101912;28;20208;-81
2021/10/31 10:37:53;;;;;;;2.10;1.90;;;14.60;80.50;;;;;;5101574;28;20203;-82
2021/10/31 10:40:28;;;;;;;2.50;2.30;;;14.60;80.40;;;;;;5101324;28;20607;-82
2021/10/31 10:42:56;;;;;;;8.25;2.25;;;14.60;81.00;;;;;;5101958;28;20176;-82
2021/10/31 10:45:28;;;;;;;5.32;2.15;;;14.70;81.10;;;;;;5101884;28;20271;-81
2021/10/31 10:47:58;;;;;;;3.22;2.33;;;14.50;80.90;;;;;;5102038;28;20650;-82
2021/10/31 10:50:33;;;;;;;1.80;1.70;;;14.50;80.90;;;;;;5101867;28;20179;-81
2021/10/31 10:52:59;;;;;;;3.20;1.67;;;14.40;80.80;;;;;;5102258;28;20197;-82
2021/10/31 10:55:30;;;;;;;3.60;2.30;;;14.50;81.20;;;;;;5102570;28;20207;-81
2021/10/31 10:58:07;;;;;;;3.55;2.30;;;14.50;81.00;;;;;;5103661;28;20417;-81
2021/10/31 11:00:35;;;;;;;5.97;2.05;;;14.40;81.20;;;;;;5102388;28;20271;-81
2021/10/31 11:03:05;;;;;;;3.92;2.35;;;14.60;81.20;;;;;;5100973;28;20202;-82
2021/10/31 11:05:39;;;;;;;3.78;2.78;;;14.70;80.80;;;;;;5103245;28;20186;-81
2021/10/31 11:08:34;;;;;;;3.90;2.70;;;14.80;80.40;;;;;;5101845;28;20176;-81
2021/10/31 11:11:12;;;;;;;4.75;1.55;;;14.70;80.30;;;;;;5085476;28;20195;-81
2021/10/31 11:13:55;;;;;;;2.95;1.80;;;14.60;80.40;;;;;;5117344;28;20222;-81
2021/10/31 11:16:21;;;;;;;2.30;2.05;;;14.70;80.60;;;;;;5116578;28;20179;-81
2021/10/31 11:18:47;;;;;;;3.58;2.03;;;14.80;81.20;;;;;;5102406;28;20176;-81
2021/10/31 11:21:13;;;;;;;2.43;1.70;;;14.80;80.30;;;;;;5102021;28;20175;-81
2021/10/31 11:23:41;;;;;;;2.60;2.30;;;14.80;80.20;;;;;;5100289;28;20260;-81
2021/10/31 11:26:13;;;;;;;3.88;1.90;;;14.80;80.20;;;;;;5103523;28;20199;-81
2021/10/31 11:28:39;;;;;;;2.97;1.92;;;14.80;80.40;;;;;;5102971;28;20172;-81
2021/10/31 11:31:05;;;;;;;2.83;1.67;;;14.90;80.40;;;;;;5102591;28;20172;-81
2021/10/31 11:33:32;;;;;;;3.67;1.95;;;14.90;80.10;;;;;;5101097;28;20200;-81
2021/10/31 11:35:58;;;;;;;5.78;2.22;;;15.00;80.20;;;;;;5100944;28;20229;-81
2021/10/31 11:38:25;;;;;;;6.50;1.60;;;15.10;80.10;;;;;;5101692;28;20176;-81
2021/10/31 11:41:10;;;;;;;2.08;1.85;;;15.10;80.00;;;;;;5102357;28;20278;-81
2021/10/31 11:43:38;;;;;;;2.65;1.75;;;15.30;80.00;;;;;;5102089;28;20255;-81
2021/10/31 11:46:05;;;;;;;2.38;2.17;;;15.20;79.40;;;;;;5102513;28;20180;-81
2021/10/31 11:48:34;;;;;;;2.00;1.65;;;15.30;79.60;;;;;;5102284;28;20173;-81
2021/10/31 11:51:00;;;;;;;6.22;2.55;;;15.70;78.70;;;;;;5100796;28;20176;-81
2021/10/31 11:53:41;;;;;;;2.27;2.07;;;15.70;78.20;;;;;;5100544;28;20287;-81
2021/10/31 11:56:21;;;;;;;2.85;1.85;;;15.70;78.10;;;;;;5099983;28;20508;-81
2021/10/31 11:59:01;;;;;;;2.42;1.80;;;15.70;77.90;;;;;;5100484;28;20172;-81
2021/10/31 12:01:46;;;;;;;2.70;2.40;;;15.90;77.80;;;;;;5100927;28;20258;-81
2021/10/31 12:04:25;;;;;;;6.35;2.00;;;15.90;77.30;;;;;;5099898;28;20248;-81
2021/10/31 12:06:51;;;;;;;2.10;1.70;;;15.90;77.40;;;;;;5100925;28;20180;-81
2021/10/31 12:09:23;;;;;;;1.73;1.60;;;16.00;76.90;;;;;;5100570;28;20285;-81
2021/10/31 12:11:48;;;;;;;3.25;1.92;;;16.00;76.60;;;;;;5101906;28;20448;-81
2021/10/31 12:14:14;;;;;;;2.67;1.43;;;16.00;76.70;;;;;;5121532;28;20191;-81
2021/10/31 12:16:53;;;;;;;4.80;2.77;;;16.00;76.70;;;;;;5119342;28;20167;-81
2021/10/31 12:19:23;;;;;;;5.93;2.00;;;16.20;76.80;;;;;;5118967;28;20416;-81
2021/10/31 12:22:21;;;;;;;1.90;1.80;;;16.20;76.10;;;;;;5118369;28;20175;-81
2021/10/31 12:24:57;;;;;;;3.47;1.30;;;16.10;76.10;;;;;;5103702;28;20195;-81
2021/10/31 12:27:38;;;;;;;3.92;1.80;;;16.00;76.10;;;;;;5118447;28;20269;-81
2021/10/31 12:30:39;;;;;;;2.92;1.85;;;16.10;76.10;;;;;;5117542;28;20193;-81
2021/10/31 12:33:08;;;;;;;2.50;1.42;;;16.30;75.80;;;;;;5117499;28;20177;-81
2021/10/31 12:35:35;;;;;;;1.70;1.60;;;16.40;75.20;;;;;;5115853;28;20564;-81
2021/10/31 12:38:30;;;;;;;2.03;1.83;;;16.40;75.00;;;;;;5115408;28;20168;-81
2021/10/31 12:41:05;;;;;;;2.63;1.60;;;16.60;74.70;;;;;;5119471;28;20519;-81
2021/10/31 12:43:50;;;;;;;2.45;1.50;;;16.50;74.00;;;;;;5119683;28;20200;-81